Time;durP1;ratioP1;P1;durP2;ratioP2;P2;SDS_P1;SDS_P2;PMS_P1;PMS_P2;Temp;Humidity;BMP_temperature;BMP_pressure;BME280_temperature;BME280_humidity;BME280_pressure;Samples;Min_cycle;Max_cycle;Signal;HPM_P1;HPM_P2
2022/06/24 00:00:35;;;;;;;6.63;4.90;;;20.00;99.90;;;;;;5006800;28;20226;-75
2022/06/24 00:03:24;;;;;;;5.88;5.15;;;20.00;99.90;;;;;;5007385;28;20932;-77
2022/06/24 00:06:17;;;;;;;9.55;5.18;;;20.00;99.90;;;;;;4994465;28;20313;-78
2022/06/24 00:09:06;;;;;;;10.27;5.93;;;20.00;99.90;;;;;;5006475;28;20318;-77
2022/06/24 00:12:02;;;;;;;7.45;5.15;;;20.00;99.90;;;;;;5006574;28;20928;-77
2022/06/24 00:14:59;;;;;;;9.13;5.20;;;20.00;99.90;;;;;;5014521;28;20225;-77
2022/06/24 00:17:49;;;;;;;7.30;5.63;;;19.90;99.90;;;;;;5008496;28;20225;-77
2022/06/24 00:20:43;;;;;;;9.63;6.47;;;19.90;99.90;;;;;;4989433;28;20956;-77
2022/06/24 00:23:32;;;;;;;9.82;6.10;;;19.80;99.90;;;;;;5009812;28;20233;-77
2022/06/24 00:26:38;;;;;;;8.45;5.47;;;19.80;99.90;;;;;;5005469;28;20210;-78
2022/06/24 00:29:34;;;;;;;13.95;6.25;;;19.80;99.90;;;;;;4989882;28;20271;-76
2022/06/24 00:32:33;;;;;;;11.60;6.32;;;19.70;99.90;;;;;;5007019;28;20850;-77
2022/06/24 00:35:25;;;;;;;7.75;6.07;;;19.70;99.90;;;;;;4984007;28;20229;-78
2022/06/24 00:38:26;;;;;;;9.35;5.85;;;19.70;99.90;;;;;;5002007;28;20672;-77
2022/06/24 00:41:16;;;;;;;13.23;6.20;;;19.70;99.90;;;;;;5005726;28;20639;-79
2022/06/24 00:44:11;;;;;;;10.80;5.88;;;19.60;99.90;;;;;;4991118;28;20222;-79
2022/06/24 00:47:04;;;;;;;11.93;6.68;;;19.60;99.90;;;;;;5004543;28;20345;-78
2022/06/24 00:49:57;;;;;;;7.82;6.10;;;19.50;99.90;;;;;;5003389;28;20740;-79
2022/06/24 00:52:50;;;;;;;14.05;6.85;;;19.50;99.90;;;;;;5009008;28;21058;-79
2022/06/24 00:55:44;;;;;;;15.45;6.72;;;19.50;99.90;;;;;;5024915;28;20218;-78
2022/06/24 00:58:37;;;;;;;9.07;5.88;;;19.30;99.90;;;;;;4992557;28;20261;-77
2022/06/24 01:01:30;;;;;;;8.95;6.00;;;19.40;99.90;;;;;;5003140;28;20845;-79
2022/06/24 01:04:21;;;;;;;9.80;6.30;;;19.30;99.90;;;;;;5001722;28;20230;-78
2022/06/24 01:07:10;;;;;;;8.98;5.93;;;19.30;99.90;;;;;;5000571;28;20222;-79
2022/06/24 01:10:03;;;;;;;8.05;5.75;;;19.30;99.90;;;;;;5000173;28;20225;-78
2022/06/24 01:12:52;;;;;;;8.93;5.53;;;19.20;99.90;;;;;;5001593;28;20281;-78
2022/06/24 01:15:41;;;;;;;9.60;5.53;;;19.20;99.90;;;;;;5017397;28;20830;-78
2022/06/24 01:18:32;;;;;;;6.45;5.40;;;19.30;99.90;;;;;;4995365;28;20237;-78
2022/06/24 01:21:34;;;;;;;8.63;5.97;;;19.30;99.90;;;;;;4988034;28;20753;-78
2022/06/24 01:24:25;;;;;;;5.53;4.93;;;19.30;99.90;;;;;;5008491;28;20767;-78
2022/06/24 01:27:15;;;;;;;6.05;5.00;;;19.20;99.90;;;;;;5014217;28;20226;-77
2022/06/24 01:30:08;;;;;;;6.30;5.10;;;19.20;99.90;;;;;;5003589;28;20268;-79
2022/06/24 01:32:59;;;;;;;9.65;5.25;;;19.20;99.90;;;;;;5009577;28;20980;-78
2022/06/24 01:35:48;;;;;;;8.15;5.30;;;19.10;99.90;;;;;;5001883;28;20233;-79
2022/06/24 01:38:41;;;;;;;6.25;4.82;;;19.20;99.90;;;;;;5006832;28;20225;-77
2022/06/24 01:41:32;;;;;;;6.53;5.35;;;19.10;99.90;;;;;;5019921;28;20242;-78
2022/06/24 01:44:22;;;;;;;10.70;5.35;;;19.20;99.90;;;;;;5000058;28;20226;-77
2022/06/24 01:47:11;;;;;;;9.02;5.70;;;19.30;99.90;;;;;;4993104;28;20233;-77
2022/06/24 01:49:59;;;;;;;6.35;5.00;;;19.20;99.90;;;;;;5004831;28;20237;-77
2022/06/24 01:52:53;;;;;;;6.35;5.20;;;19.10;99.90;;;;;;4989292;28;20850;-81
2022/06/24 01:55:47;;;;;;;6.82;4.88;;;19.10;99.90;;;;;;4990817;28;20222;-79
2022/06/24 01:58:40;;;;;;;7.00;5.72;;;19.10;99.90;;;;;;4982814;28;20340;-79
2022/06/24 02:01:34;;;;;;;7.53;5.35;;;19.00;99.90;;;;;;4978039;28;20239;-79
2022/06/24 02:04:25;;;;;;;8.00;5.70;;;19.00;99.90;;;;;;4961736;28;20219;-79
2022/06/24 02:07:16;;;;;;;9.20;5.30;;;19.10;99.90;;;;;;4979788;28;20245;-79
2022/06/24 02:13:31;;;;;;;5.75;5.15;;;18.90;99.90;;;;;;4977368;28;20797;-79
2022/06/24 02:16:21;;;;;;;7.05;5.05;;;18.90;99.90;;;;;;4990409;28;20226;-79
2022/06/24 02:19:11;;;;;;;6.90;5.50;;;18.90;99.90;;;;;;4965071;28;20373;-78
2022/06/24 02:21:59;;;;;;;6.85;5.50;;;18.90;99.90;;;;;;4967848;28;20712;-77
2022/06/24 02:24:48;;;;;;;9.48;5.93;;;18.80;99.90;;;;;;4980167;28;20234;-78
2022/06/24 02:27:37;;;;;;;8.13;5.47;;;18.80;99.90;;;;;;4966629;28;20246;-77
2022/06/24 02:30:29;;;;;;;5.95;5.25;;;18.90;99.90;;;;;;4977014;28;20793;-78
2022/06/24 02:33:18;;;;;;;9.30;5.75;;;18.80;99.90;;;;;;4975724;28;20230;-77
2022/06/24 02:36:09;;;;;;;8.13;5.47;;;18.80;99.90;;;;;;4978053;28;20226;-78
2022/06/24 02:38:57;;;;;;;7.55;5.95;;;18.80;99.90;;;;;;4977217;28;20230;-77
2022/06/24 02:41:46;;;;;;;9.02;5.85;;;18.70;99.90;;;;;;4965718;28;20223;-76
2022/06/24 02:44:35;;;;;;;8.00;6.45;;;18.70;99.90;;;;;;4979031;28;20736;-78
2022/06/24 02:47:36;;;;;;;7.13;5.65;;;18.70;99.90;;;;;;4979564;28;20227;-78
2022/06/24 02:50:27;;;;;;;8.57;5.40;;;18.70;99.90;;;;;;4967515;28;20219;-80
2022/06/24 02:53:18;;;;;;;9.43;6.25;;;18.70;99.90;;;;;;4963656;28;20253;-76
2022/06/24 02:56:08;;;;;;;9.00;5.85;;;18.80;99.90;;;;;;4965589;28;20225;-76
2022/06/24 02:58:57;;;;;;;7.97;5.72;;;18.80;99.90;;;;;;4973685;28;20218;-76
2022/06/24 03:01:45;;;;;;;8.55;5.68;;;18.70;99.90;;;;;;4984261;28;20230;-78
2022/06/24 03:04:36;;;;;;;7.85;5.90;;;18.60;99.90;;;;;;4987350;28;20238;-76
2022/06/24 03:07:24;;;;;;;8.73;6.18;;;18.70;99.90;;;;;;4980722;28;20226;-76
2022/06/24 03:10:13;;;;;;;6.28;5.20;;;18.80;99.90;;;;;;4985042;28;20278;-77
2022/06/24 03:13:02;;;;;;;9.13;6.20;;;18.90;99.90;;;;;;4979426;28;20736;-78
2022/06/24 03:15:53;;;;;;;7.82;6.13;;;18.90;99.90;;;;;;5001271;28;20229;-78
2022/06/24 03:18:42;;;;;;;7.25;5.50;;;18.90;99.90;;;;;;4993757;28;20223;-77
2022/06/24 03:21:34;;;;;;;9.55;6.00;;;19.00;99.90;;;;;;4994226;28;20309;-77
2022/06/24 03:24:24;;;;;;;7.65;6.32;;;18.90;99.90;;;;;;4996079;28;20313;-77
2022/06/24 03:27:13;;;;;;;6.82;5.65;;;19.00;99.90;;;;;;4980815;28;20693;-79
2022/06/24 03:30:09;;;;;;;10.55;6.00;;;19.00;99.90;;;;;;4978562;28;20544;-79
2022/06/24 03:32:58;;;;;;;10.98;6.15;;;19.00;99.90;;;;;;4979348;28;20239;-77
2022/06/24 03:35:54;;;;;;;6.85;5.60;;;19.00;99.90;;;;;;4974502;28;20278;-78
2022/06/24 03:38:45;;;;;;;9.65;6.30;;;19.10;99.90;;;;;;4974588;28;20228;-79
2022/06/24 03:41:37;;;;;;;9.10;6.30;;;19.20;99.90;;;;;;5274586;23;20221;-78
2022/06/24 03:47:22;;;;;;;7.80;6.20;;;19.00;99.90;;;;;;5034238;23;20261;-77
2022/06/24 03:50:13;;;;;;;8.20;5.93;;;19.10;99.90;;;;;;4999616;28;20218;-80
2022/06/24 03:53:05;;;;;;;7.03;6.13;;;19.10;99.90;;;;;;4991898;28;20734;-79
2022/06/24 03:56:01;;;;;;;7.25;5.72;;;19.20;99.90;;;;;;5003096;28;20739;-79
2022/06/24 03:58:53;;;;;;;7.22;5.75;;;19.00;99.90;;;;;;5004908;28;20216;-78
2022/06/24 04:01:44;;;;;;;9.18;5.38;;;19.10;99.90;;;;;;5012159;28;20236;-79
2022/06/24 04:04:34;;;;;;;6.60;5.40;;;19.20;99.90;;;;;;5002944;28;20235;-78
2022/06/24 04:07:23;;;;;;;6.57;5.55;;;19.40;99.90;;;;;;5018930;28;20232;-78
2022/06/24 04:10:14;;;;;;;9.10;5.40;;;19.40;99.90;;;;;;5009352;28;20238;-78
2022/06/24 04:13:10;;;;;;;9.45;5.25;;;19.50;99.90;;;;;;4997065;28;20234;-78
2022/06/24 04:16:02;;;;;;;6.55;4.97;;;19.50;99.90;;;;;;5004021;28;20229;-78
2022/06/24 04:18:53;;;;;;;7.15;5.10;;;19.50;99.90;;;;;;5025004;28;20229;-78
2022/06/24 04:21:50;;;;;;;5.70;4.97;;;19.80;99.90;;;;;;5024912;28;20225;-78
2022/06/24 04:24:44;;;;;;;6.68;5.68;;;19.70;99.90;;;;;;5010556;28;20253;-79
2022/06/24 04:45:32;;;;;;;12.27;5.63;;;20.30;99.90;;;;;;5956221;23;20226;-78
2022/06/24 04:48:21;;;;;;;9.55;5.30;;;20.40;99.90;;;;;;5020366;28;20322;-73
2022/06/24 04:51:13;;;;;;;6.90;4.97;;;20.40;99.90;;;;;;5007039;28;20575;-76
2022/06/24 04:54:01;;;;;;;6.50;4.93;;;20.50;99.90;;;;;;5025505;28;20723;-77
2022/06/24 04:56:52;;;;;;;5.90;4.82;;;20.50;99.90;;;;;;5014313;28;20584;-77
2022/06/24 04:59:41;;;;;;;8.07;4.88;;;20.60;99.90;;;;;;5019310;28;20232;-77
2022/06/24 05:02:29;;;;;;;6.15;4.78;;;20.70;99.90;;;;;;5017816;28;20234;-80
2022/06/24 05:05:18;;;;;;;8.18;5.03;;;20.80;99.90;;;;;;5021757;28;20225;-80
2022/06/24 05:08:07;;;;;;;9.48;4.68;;;21.00;99.90;;;;;;5019835;28;20221;-79
2022/06/24 05:10:56;;;;;;;8.07;4.63;;;21.10;99.90;;;;;;5018429;28;20228;-79
2022/06/24 05:13:46;;;;;;;10.65;4.32;;;21.30;99.90;;;;;;5021117;28;20612;-80
2022/06/24 05:16:34;;;;;;;6.10;4.68;;;21.30;99.90;;;;;;5021696;28;20221;-79
2022/06/24 05:19:27;;;;;;;8.85;4.15;;;21.30;99.90;;;;;;5010086;28;20238;-80
2022/06/24 05:22:16;;;;;;;9.63;4.13;;;21.40;99.90;;;;;;5003303;28;20237;-77
2022/06/24 05:25:06;;;;;;;7.28;4.45;;;21.50;99.90;;;;;;5019680;28;20231;-78
2022/06/24 05:27:59;;;;;;;9.82;4.20;;;21.60;99.90;;;;;;5017627;28;20221;-76
2022/06/24 05:30:55;;;;;;;4.80;3.70;;;21.80;99.90;;;;;;5030493;28;20228;-82
2022/06/24 05:33:47;;;;;;;6.88;3.67;;;21.90;99.90;;;;;;5004749;28;20234;-80
2022/06/24 05:36:36;;;;;;;4.72;3.45;;;21.80;99.90;;;;;;5013829;28;20232;-86
2022/06/24 05:39:24;;;;;;;8.55;3.53;;;21.90;99.90;;;;;;5022317;28;20209;-81
2022/06/24 05:42:13;;;;;;;10.82;3.53;;;22.00;99.90;;;;;;5008630;28;20225;-83
2022/06/24 05:45:02;;;;;;;7.40;3.42;;;22.00;99.90;;;;;;5018534;28;20660;-78
2022/06/24 05:47:51;;;;;;;7.15;3.42;;;22.10;99.90;;;;;;5000188;28;20622;-80
2022/06/24 05:50:40;;;;;;;7.40;3.53;;;22.10;99.90;;;;;;4995525;28;20222;-81
2022/06/24 05:56:43;;;;;;;6.07;3.35;;;22.00;99.90;;;;;;5002760;28;20218;-77
2022/06/24 05:59:37;;;;;;;7.15;3.63;;;22.10;99.90;;;;;;5005091;28;20222;-80
2022/06/24 06:02:26;;;;;;;4.05;3.53;;;22.30;99.90;;;;;;5001480;28;20678;-73
2022/06/24 06:05:17;;;;;;;8.13;4.05;;;22.50;99.90;;;;;;5002576;28;20246;-73
2022/06/24 06:08:06;;;;;;;8.95;4.03;;;22.60;99.90;;;;;;5000735;28;20289;-72
2022/06/24 06:10:54;;;;;;;8.63;4.10;;;22.60;99.90;;;;;;5000544;28;20233;-74
2022/06/24 06:13:44;;;;;;;6.72;4.10;;;22.80;99.90;;;;;;5001549;28;20234;-73
2022/06/24 06:16:32;;;;;;;6.50;3.60;;;22.80;99.90;;;;;;5008340;28;20232;-75
2022/06/24 06:19:21;;;;;;;9.25;3.88;;;23.00;99.90;;;;;;5010832;28;20328;-79
2022/06/24 06:22:11;;;;;;;6.25;3.60;;;22.90;99.90;;;;;;5005276;28;20222;-78
2022/06/24 06:24:59;;;;;;;4.10;3.15;;;23.20;99.90;;;;;;5002115;28;20221;-79
2022/06/24 06:27:48;;;;;;;7.30;3.47;;;24.20;97.70;;;;;;4997007;28;20229;-76
2022/06/24 06:30:36;;;;;;;8.05;3.53;;;25.80;94.20;;;;;;5001170;28;20227;-75
2022/06/24 06:33:30;;;;;;;7.00;3.30;;;25.90;90.50;;;;;;4998016;28;20225;-73
2022/06/24 06:36:19;;;;;;;9.30;3.30;;;25.20;91.20;;;;;;4984591;28;20309;-82
2022/06/24 06:39:09;;;;;;;4.63;3.55;;;24.60;91.50;;;;;;4983733;28;21213;-80
2022/06/24 06:41:58;;;;;;;3.70;3.25;;;24.40;92.10;;;;;;4984480;28;20218;-81
2022/06/24 06:44:46;;;;;;;7.65;3.63;;;24.20;91.50;;;;;;5000376;28;21047;-80
2022/06/24 06:47:35;;;;;;;4.75;3.20;;;24.20;92.40;;;;;;4994809;28;20219;-82
2022/06/24 06:50:23;;;;;;;5.72;3.22;;;24.50;92.50;;;;;;5000936;28;20261;-80
2022/06/24 06:53:12;;;;;;;6.60;3.13;;;24.80;91.00;;;;;;4999962;28;20258;-81
2022/06/24 06:56:02;;;;;;;6.55;3.30;;;24.70;90.50;;;;;;4989480;28;20230;-82
2022/06/24 06:58:50;;;;;;;5.65;3.10;;;24.60;90.30;;;;;;4997793;28;20229;-81
2022/06/24 07:01:39;;;;;;;5.10;3.30;;;24.50;90.80;;;;;;5000101;28;20218;-79
2022/06/24 07:04:27;;;;;;;3.90;2.88;;;24.70;90.60;;;;;;5002405;28;21830;-77
2022/06/24 07:07:16;;;;;;;4.97;3.17;;;24.70;88.60;;;;;;5002803;28;20218;-78
2022/06/24 07:10:06;;;;;;;6.50;2.78;;;24.70;88.80;;;;;;5004912;28;20237;-78
2022/06/24 07:12:56;;;;;;;5.53;3.22;;;24.90;89.40;;;;;;4982148;28;20351;-79
2022/06/24 07:15:44;;;;;;;5.00;3.05;;;25.10;89.60;;;;;;4985943;28;20222;-79
2022/06/24 07:18:37;;;;;;;3.65;3.28;;;25.60;84.00;;;;;;4999773;28;20352;-79
2022/06/24 07:21:26;;;;;;;5.65;2.88;;;25.60;85.10;;;;;;4996773;28;20224;-79
2022/06/24 07:24:14;;;;;;;3.67;3.10;;;26.00;85.20;;;;;;5003300;28;20230;-80
2022/06/24 07:27:03;;;;;;;4.75;2.90;;;25.80;83.60;;;;;;4999825;28;20230;-78
2022/06/24 07:29:53;;;;;;;6.32;2.90;;;25.80;83.40;;;;;;4997707;28;20215;-81
2022/06/24 07:32:42;;;;;;;5.18;3.20;;;26.30;82.60;;;;;;5003105;28;20217;-76
2022/06/24 07:35:31;;;;;;;3.88;3.28;;;26.40;82.50;;;;;;4996683;28;20280;-77
2022/06/24 07:38:39;;;;;;;4.05;3.00;;;26.60;81.10;;;;;;4999243;28;20226;-77
2022/06/24 07:41:28;;;;;;;4.82;2.80;;;27.00;81.20;;;;;;4997454;28;20210;-77
2022/06/24 07:44:17;;;;;;;3.97;2.65;;;27.50;78.90;;;;;;4997040;28;20238;-77
2022/06/24 07:47:07;;;;;;;4.38;2.88;;;27.80;77.30;;;;;;5017161;28;20708;-78
2022/06/24 07:49:56;;;;;;;6.45;2.97;;;28.30;75.50;;;;;;5007503;28;20235;-78
2022/06/24 07:52:44;;;;;;;2.83;2.63;;;28.70;73.20;;;;;;5019786;28;20316;-79
2022/06/24 07:58:39;;;;;;;2.72;2.50;;;29.10;72.00;;;;;;5021622;28;20220;-76
2022/06/24 08:01:28;;;;;;;5.28;2.60;;;29.30;70.50;;;;;;5029277;28;20221;-78
2022/06/24 08:04:18;;;;;;;2.92;2.60;;;29.50;69.40;;;;;;5024658;28;20236;-80
2022/06/24 08:07:07;;;;;;;4.18;2.60;;;30.00;68.50;;;;;;5026258;28;20236;-79
2022/06/24 08:09:55;;;;;;;2.95;2.60;;;29.90;66.60;;;;;;5022985;28;20221;-78
2022/06/24 08:12:44;;;;;;;4.00;2.42;;;29.80;66.50;;;;;;5029088;28;20298;-77
2022/06/24 08:15:32;;;;;;;2.40;2.20;;;29.90;66.50;;;;;;5027013;28;20252;-76
2022/06/24 08:18:21;;;;;;;2.28;2.03;;;30.40;64.90;;;;;;5024416;28;20548;-77
2022/06/24 08:21:11;;;;;;;3.05;2.00;;;30.80;63.10;;;;;;5024406;28;20224;-77
2022/06/24 08:23:59;;;;;;;9.88;3.42;;;31.20;62.40;;;;;;5020741;28;20228;-77
2022/06/24 08:26:52;;;;;;;3.58;2.03;;;31.30;61.20;;;;;;5003063;28;20240;-79
2022/06/24 08:29:40;;;;;;;3.55;2.35;;;31.00;59.10;;;;;;5023701;28;20240;-79
2022/06/24 08:32:29;;;;;;;3.83;2.10;;;31.30;60.50;;;;;;5016691;28;20239;-78
2022/06/24 08:35:18;;;;;;;3.30;1.90;;;31.70;58.40;;;;;;5023009;28;20751;-78
2022/06/24 08:38:18;;;;;;;2.72;2.03;;;31.50;58.60;;;;;;5024280;28;20229;-78
2022/06/24 08:41:07;;;;;;;2.45;2.00;;;32.10;57.40;;;;;;5004366;28;20221;-80
2022/06/24 08:43:58;;;;;;;3.15;2.20;;;32.20;57.60;;;;;;5026824;28;20274;-77
2022/06/24 08:46:47;;;;;;;3.17;1.67;;;32.70;58.00;;;;;;5024524;28;20791;-79
2022/06/24 08:49:36;;;;;;;2.22;2.05;;;32.60;54.30;;;;;;5007563;28;20232;-74
2022/06/24 08:52:24;;;;;;;4.25;2.40;;;32.70;54.90;;;;;;5023800;28;20283;-76
2022/06/24 08:55:17;;;;;;;4.30;1.92;;;33.10;55.30;;;;;;5022392;28;20217;-75
2022/06/24 08:58:07;;;;;;;3.45;2.08;;;32.30;54.60;;;;;;5014257;28;20218;-76
2022/06/24 09:00:56;;;;;;;3.47;2.38;;;32.80;55.00;;;;;;5023399;28;20255;-77
2022/06/24 09:03:45;;;;;;;3.17;2.30;;;33.70;54.00;;;;;;5017275;28;20221;-72
2022/06/24 09:06:38;;;;;;;3.22;2.03;;;33.70;55.20;;;;;;5007993;28;20549;-72
2022/06/24 09:09:28;;;;;;;2.83;1.90;;;33.10;55.60;;;;;;5021647;28;20221;-76
2022/06/24 09:12:18;;;;;;;3.20;2.03;;;34.40;55.40;;;;;;5016977;28;20228;-74
2022/06/24 09:15:08;;;;;;;2.08;1.83;;;34.70;50.80;;;;;;5017977;28;20248;-75
2022/06/24 09:17:57;;;;;;;3.05;1.70;;;34.70;49.40;;;;;;5015106;28;20217;-75
2022/06/24 09:20:50;;;;;;;1.80;1.70;;;35.10;49.50;;;;;;5017312;28;20216;-74
2022/06/24 09:23:53;;;;;;;3.20;1.70;;;36.40;48.30;;;;;;5017776;28;20234;-75
2022/06/24 09:26:44;;;;;;;2.20;1.50;;;37.20;47.10;;;;;;5012295;28;20236;-74
2022/06/24 09:29:34;;;;;;;6.80;2.30;;;37.60;46.30;;;;;;5016140;28;20221;-74
2022/06/24 09:32:23;;;;;;;2.13;1.92;;;38.60;47.10;;;;;;5018448;28;20233;-75
2022/06/24 09:35:12;;;;;;;2.00;1.80;;;37.90;44.90;;;;;;5004904;28;20324;-74
2022/06/24 09:38:00;;;;;;;1.90;1.80;;;37.00;44.80;;;;;;5021309;28;20304;-74
2022/06/24 09:40:49;;;;;;;1.92;1.60;;;37.70;44.80;;;;;;5014454;28;20217;-74
2022/06/24 09:43:37;;;;;;;6.20;1.70;;;38.00;44.70;;;;;;5019050;28;20251;-74
2022/06/24 09:46:30;;;;;;;2.35;1.73;;;37.40;44.90;;;;;;5017566;28;20312;-73
2022/06/24 09:49:19;;;;;;;3.38;1.95;;;37.70;44.90;;;;;;5017091;28;20232;-74
2022/06/24 09:52:10;;;;;;;3.67;1.73;;;38.70;45.00;;;;;;5021755;28;20282;-75
2022/06/24 09:54:59;;;;;;;2.05;1.90;;;38.90;44.00;;;;;;5003757;28;20227;-75
2022/06/24 09:57:48;;;;;;;4.25;2.00;;;38.80;43.00;;;;;;5017519;28;20216;-75
2022/06/24 10:00:43;;;;;;;2.05;1.77;;;39.10;43.70;;;;;;5022235;28;20231;-75
2022/06/24 10:03:34;;;;;;;5.45;2.00;;;39.40;43.00;;;;;;5018764;28;20228;-74
2022/06/24 10:06:23;;;;;;;3.72;1.90;;;41.50;41.20;;;;;;5014955;28;20252;-74
2022/06/24 10:09:13;;;;;;;2.70;1.83;;;42.50;39.50;;;;;;5014712;28;20236;-73
2022/06/24 10:12:03;;;;;;;2.17;1.80;;;41.90;39.50;;;;;;5016635;28;20654;-74
2022/06/24 10:14:52;;;;;;;5.47;1.80;;;43.40;39.70;;;;;;5012952;28;20287;-74
2022/06/24 10:17:42;;;;;;;4.55;1.63;;;43.60;37.60;;;;;;5016255;28;20220;-74
2022/06/24 10:20:32;;;;;;;4.25;1.52;;;42.90;37.80;;;;;;5013679;28;20236;-74
2022/06/24 10:23:40;;;;;;;2.65;1.90;;;43.10;38.50;;;;;;5019377;28;20638;-74
2022/06/24 10:26:30;;;;;;;2.28;1.75;;;43.40;38.00;;;;;;5016700;28;20225;-78
2022/06/24 10:29:21;;;;;;;5.55;1.63;;;43.50;38.10;;;;;;5015111;28;20299;-77
2022/06/24 10:32:10;;;;;;;2.20;2.00;;;44.30;37.70;;;;;;5012131;28;20213;-74
2022/06/24 10:34:59;;;;;;;1.98;1.80;;;44.10;37.10;;;;;;5014922;28;20274;-72
2022/06/24 10:37:54;;;;;;;5.93;2.13;;;44.10;36.70;;;;;;5027617;28;20219;-76
2022/06/24 10:40:44;;;;;;;4.30;1.80;;;44.00;37.30;;;;;;5018093;28;20225;-76
2022/06/24 10:43:35;;;;;;;2.35;1.73;;;43.70;36.70;;;;;;5021538;28;20278;-76
2022/06/24 10:46:24;;;;;;;5.45;2.55;;;43.40;35.90;;;;;;5008187;28;20237;-76
2022/06/24 10:49:12;;;;;;;2.78;1.80;;;43.80;39.30;;;;;;5024144;28;20303;-77
2022/06/24 10:52:31;;;;;;;2.20;2.00;;;44.10;36.30;;;;;;5020674;28;20239;-79
2022/06/24 10:55:30;;;;;;;2.25;2.05;;;44.10;36.30;;;;;;5021317;28;20221;-78
2022/06/24 10:58:19;;;;;;;3.20;1.95;;;45.10;35.50;;;;;;5006590;28;20227;-77
2022/06/24 11:01:11;;;;;;;3.15;1.95;;;45.60;35.30;;;;;;5019550;28;20328;-79
2022/06/24 11:04:01;;;;;;;3.45;1.95;;;45.40;35.90;;;;;;4998647;28;20331;-78
2022/06/24 11:07:09;;;;;;;3.65;2.08;;;46.40;34.90;;;;;;5018872;28;20220;-75
2022/06/24 11:09:57;;;;;;;4.47;1.77;;;45.40;34.90;;;;;;5001948;28;20659;-81
2022/06/24 11:12:51;;;;;;;2.70;2.00;;;45.60;34.80;;;;;;5015430;28;20299;-81
2022/06/24 11:15:42;;;;;;;5.25;2.00;;;45.80;33.90;;;;;;5022911;28;21266;-80
2022/06/24 11:18:33;;;;;;;2.75;1.60;;;45.90;34.40;;;;;;5017664;28;20288;-82
2022/06/24 11:21:22;;;;;;;2.20;2.00;;;46.60;35.30;;;;;;5015821;28;20298;-80
2022/06/24 11:24:10;;;;;;;3.35;2.20;;;46.50;34.00;;;;;;5012099;28;20229;-80
2022/06/24 11:27:07;;;;;;;3.30;1.80;;;46.20;33.40;;;;;;5008520;28;20225;-80
2022/06/24 11:30:00;;;;;;;3.90;1.92;;;44.90;34.80;;;;;;5016946;28;20222;-79
2022/06/24 11:32:53;;;;;;;3.33;1.70;;;45.30;35.90;;;;;;5023531;28;20334;-80
2022/06/24 11:35:41;;;;;;;3.00;1.95;;;45.30;35.60;;;;;;5011525;28;21692;-82
2022/06/24 11:38:32;;;;;;;2.30;1.80;;;43.90;35.80;;;;;;5024885;28;20224;-80
2022/06/24 11:41:28;;;;;;;2.30;1.98;;;44.10;36.50;;;;;;5007626;28;20212;-80
2022/06/24 11:44:38;;;;;;;2.00;1.80;;;43.40;36.20;;;;;;5024601;28;20225;-79
2022/06/24 11:47:34;;;;;;;2.58;1.52;;;42.00;36.40;;;;;;5009381;28;20366;-80
2022/06/24 11:50:23;;;;;;;2.40;1.70;;;44.50;36.20;;;;;;5022903;28;20759;-79
2022/06/24 11:53:12;;;;;;;3.13;2.20;;;45.30;35.40;;;;;;4997887;28;20225;-74
2022/06/24 11:56:08;;;;;;;1.83;1.60;;;44.10;34.50;;;;;;5002441;28;20272;-81
2022/06/24 11:58:57;;;;;;;3.03;1.70;;;44.50;35.40;;;;;;5001902;28;20230;-83
2022/06/24 12:01:46;;;;;;;2.10;1.77;;;44.50;35.90;;;;;;4993901;28;20733;-80
2022/06/24 12:04:36;;;;;;;2.63;1.70;;;45.10;34.50;;;;;;4993424;28;20310;-82
2022/06/24 12:07:25;;;;;;;2.00;1.70;;;44.30;34.30;;;;;;5002979;28;20225;-81
2022/06/24 12:10:14;;;;;;;2.55;1.55;;;44.90;35.30;;;;;;4997026;28;20222;-81
2022/06/24 12:13:05;;;;;;;1.70;1.60;;;45.10;34.70;;;;;;5006574;28;20229;-81
2022/06/24 12:15:55;;;;;;;1.75;1.65;;;45.80;34.30;;;;;;5006861;28;20232;-81
2022/06/24 12:18:44;;;;;;;2.38;1.60;;;43.70;34.20;;;;;;4993980;28;20623;-82
2022/06/24 12:21:34;;;;;;;3.13;1.48;;;43.80;35.40;;;;;;5005681;28;20232;-82
2022/06/24 12:24:23;;;;;;;1.65;1.55;;;43.40;35.60;;;;;;5003004;28;20244;-82
2022/06/24 12:27:13;;;;;;;1.60;1.48;;;42.90;35.20;;;;;;4987499;28;20233;-81
2022/06/24 12:30:01;;;;;;;1.85;1.70;;;42.90;35.80;;;;;;5005941;28;20221;-82
2022/06/24 12:32:51;;;;;;;2.22;2.03;;;43.00;35.60;;;;;;5006370;28;20648;-81
2022/06/24 12:35:41;;;;;;;3.28;1.70;;;43.00;36.70;;;;;;5003142;28;20226;-82
2022/06/24 12:38:43;;;;;;;1.60;1.42;;;42.70;35.80;;;;;;4999676;28;20245;-80
2022/06/24 12:41:43;;;;;;;2.88;1.50;;;42.30;36.50;;;;;;5002149;28;20241;-80
2022/06/24 12:44:41;;;;;;;3.40;1.75;;;41.90;36.20;;;;;;4992792;28;20356;-81
2022/06/24 12:50:36;;;;;;;2.60;1.50;;;41.60;36.80;;;;;;5022203;28;20233;-88
2022/06/24 12:53:24;;;;;;;1.60;1.50;;;41.00;36.90;;;;;;5015287;28;20295;-82
2022/06/24 12:56:14;;;;;;;1.77;1.42;;;40.30;37.00;;;;;;5021569;28;20224;-80
2022/06/24 12:59:03;;;;;;;3.58;1.95;;;;;;;;;;5023597;28;20247;-78
2022/06/24 13:01:52;;;;;;;2.80;1.60;;;36.60;40.40;;;;;;5019364;28;20290;-77
2022/06/24 13:04:44;;;;;;;2.47;1.40;;;35.30;43.00;;;;;;5021856;28;20209;-77
2022/06/24 13:07:32;;;;;;;5.63;1.55;;;34.40;43.60;;;;;;5000715;28;20225;-78
2022/06/24 13:10:22;;;;;;;3.65;1.70;;;33.80;45.50;;;;;;5015285;28;20672;-75
2022/06/24 13:13:12;;;;;;;1.95;1.52;;;33.20;46.40;;;;;;5017629;28;20253;-75
2022/06/24 13:16:01;;;;;;;8.18;1.90;;;32.90;47.30;;;;;;5016390;28;20230;-76
2022/06/24 13:18:50;;;;;;;1.83;1.70;;;32.50;47.70;;;;;;5020281;28;20226;-75
2022/06/24 13:21:38;;;;;;;3.05;1.70;;;32.30;47.80;;;;;;5022081;28;20230;-76
2022/06/24 13:24:27;;;;;;;3.42;2.30;;;32.20;48.60;;;;;;5012732;28;20294;-82
2022/06/24 13:27:15;;;;;;;4.20;2.28;;;32.20;49.00;;;;;;5028612;28;20316;-74
2022/06/24 13:30:07;;;;;;;4.05;1.98;;;31.50;49.00;;;;;;5011661;28;20224;-86
2022/06/24 13:32:56;;;;;;;3.20;2.05;;;31.60;50.00;;;;;;5013652;28;20224;-80
2022/06/24 13:35:45;;;;;;;3.83;2.00;;;31.20;50.40;;;;;;5009130;28;20229;-75
2022/06/24 13:38:33;;;;;;;3.92;1.98;;;31.30;50.70;;;;;;5025934;28;20609;-76
2022/06/24 13:41:22;;;;;;;3.72;2.20;;;30.90;50.70;;;;;;5036135;28;20235;-79
2022/06/24 13:44:11;;;;;;;2.58;2.38;;;30.60;51.40;;;;;;5016514;28;20231;-79
2022/06/24 13:47:01;;;;;;;2.72;2.10;;;30.60;51.30;;;;;;5033041;28;20239;-79
2022/06/24 13:49:49;;;;;;;4.32;1.92;;;30.50;51.90;;;;;;5033952;28;20227;-78
2022/06/24 13:52:38;;;;;;;6.53;2.20;;;30.80;52.60;;;;;;5033712;28;20255;-78
2022/06/24 13:55:27;;;;;;;3.65;2.30;;;30.50;51.80;;;;;;5025196;28;20505;-78
2022/06/24 13:58:15;;;;;;;2.33;2.13;;;30.60;52.50;;;;;;5028968;28;20232;-78
2022/06/24 14:01:04;;;;;;;3.03;2.30;;;30.60;52.10;;;;;;5022854;28;20608;-78
2022/06/24 14:03:55;;;;;;;2.13;1.92;;;30.50;52.50;;;;;;5024569;28;20236;-78
2022/06/24 14:06:45;;;;;;;3.80;2.80;;;30.50;52.20;;;;;;5016944;28;20232;-78
2022/06/24 14:09:34;;;;;;;4.30;2.60;;;30.20;52.30;;;;;;5018290;28;20225;-79
2022/06/24 14:12:22;;;;;;;5.65;2.10;;;30.20;52.30;;;;;;5021931;28;20216;-76
2022/06/24 14:15:13;;;;;;;2.38;2.08;;;30.10;52.00;;;;;;5017159;28;20221;-73
2022/06/24 14:18:04;;;;;;;8.02;2.10;;;30.10;52.20;;;;;;5017832;28;20591;-77
2022/06/24 14:20:54;;;;;;;2.17;1.98;;;29.90;52.50;;;;;;5014525;28;20255;-77
2022/06/24 14:26:49;;;;;;;3.85;2.10;;;29.70;52.20;;;;;;5021804;28;20245;-76
2022/06/24 14:29:39;;;;;;;2.50;2.10;;;29.60;52.70;;;;;;5022327;28;20236;-78
2022/06/24 14:32:27;;;;;;;3.45;2.30;;;29.60;53.00;;;;;;5017874;28;20232;-78
2022/06/24 14:35:16;;;;;;;5.38;2.30;;;29.60;53.20;;;;;;5022413;28;20231;-76
2022/06/24 14:41:12;;;;;;;6.82;2.30;;;29.50;53.40;;;;;;5019176;28;20650;-76
2022/06/24 14:44:01;;;;;;;3.80;2.28;;;29.40;52.80;;;;;;5011327;28;20224;-75
2022/06/24 14:46:50;;;;;;;2.47;2.20;;;29.40;52.60;;;;;;5024235;28;20305;-77
2022/06/24 14:49:42;;;;;;;3.17;2.03;;;29.40;53.20;;;;;;5012881;28;20241;-76
2022/06/24 14:52:31;;;;;;;3.97;2.10;;;29.20;53.20;;;;;;5023732;28;20692;-77
2022/06/24 14:55:26;;;;;;;4.97;2.40;;;29.30;53.40;;;;;;5022357;28;20224;-76
2022/06/24 14:58:15;;;;;;;4.70;1.88;;;29.30;53.70;;;;;;5017213;28;20762;-77
2022/06/24 15:01:03;;;;;;;3.38;2.08;;;29.30;53.70;;;;;;5017978;28;20217;-76
2022/06/24 15:03:53;;;;;;;3.70;2.40;;;29.20;53.80;;;;;;5023701;28;20210;-77
2022/06/24 15:06:42;;;;;;;3.53;2.55;;;29.20;53.80;;;;;;5024141;28;20229;-77
2022/06/24 15:09:31;;;;;;;4.22;2.47;;;29.10;54.20;;;;;;5014330;28;20324;-77
2022/06/24 15:12:25;;;;;;;2.85;2.30;;;29.00;53.80;;;;;;5018527;28;20332;-77
2022/06/24 15:15:14;;;;;;;9.50;2.28;;;29.00;54.00;;;;;;5019024;28;20226;-78
2022/06/24 15:18:04;;;;;;;5.70;2.55;;;28.90;54.00;;;;;;5012302;28;20221;-77
2022/06/24 15:20:54;;;;;;;3.90;2.40;;;28.80;54.40;;;;;;5023341;28;20387;-78
2022/06/24 15:23:54;;;;;;;2.97;2.65;;;28.70;54.70;;;;;;5018982;28;20687;-77
2022/06/24 15:26:43;;;;;;;2.67;2.47;;;28.70;55.50;;;;;;5008724;28;20244;-76